Bismarck Municipal Airport Bismarck US
ICAO: KBIS
IATA: BIS
Category: Medium
Scheduled Services: Yes

Elevation: 1661 ft
TransAlt. 18000 ft.

Airport Communications:
APP/DEP:126.3
ATIS:119.35
CTAF:118.3
GND:121.9
ARNG OPS:49.8
GRAND FORKS RDO:122.2
TWR:118.3
UNICOM:122.95

KBIS Zoom In..

If Map Doesn't Load, Click Here

Runways:

(A) RW 03 length 6600 ft width 100 ft
---- / hdg 32

(B) RW 13 length 8794 ft width 150 ft
ILS 111.50 / hdg 131

(C) RW 21 length 6600 ft width 100 ft
---- / hdg 212

(D) RW 31 length 8794 ft width 150 ft
ILS 110.30 / hdg 311

Location; KBIS
Day. 21 / Time. 13.00 Zulu
* Altimeter: 30.25
* Temperature: 06° c. 42.8°f.
* Wind from: 310° Speed 10 kn.
Dewpoint: 04° c.
Visibility: 10 Statute Miles.
Clouds: Scattered 2000 ft.

KBIS 211300Z 31010KT 10SM SCT020 06/04 A3025 RMK AO2 T00560039


Wind From 310°
Speed 10 kn.

 
 
jpsmedia.com for Web Design worldairports.se 2018   terms of use